Time;durP1;ratioP1;P1;durP2;ratioP2;P2;SDS_P1;SDS_P2;PMS_P1;PMS_P2;Temp;Humidity;BMP_temperature;BMP_pressure;BME280_temperature;BME280_humidity;BME280_pressure;Samples;Min_cycle;Max_cycle;Signal;HPM_P1;HPM_P2
2023/10/17 00:02:10;;;;;;;;;8.25;7.75;;;;;-143.90;100.00;76350.81;4975334;28;101807;-76
2023/10/17 00:04:41;;;;;;;;;13.00;11.25;;;;;-143.90;100.00;76359.09;4968457;28;102215;-75
2023/10/17 00:07:08;;;;;;;;;16.00;13.00;;;;;-143.90;100.00;76359.09;4971179;28;101775;-75
2023/10/17 00:09:38;;;;;;;;;13.00;11.00;;;;;-143.90;100.00;76367.34;4969139;28;103395;-74
2023/10/17 00:14:57;;;;;;;;;12.25;8.25;;;;;-143.90;100.00;76379.75;4974336;28;101844;-75
2023/10/17 00:17:24;;;;;;;;;10.00;8.75;;;;;-143.90;100.00;76390.09;4973598;28;101876;-75
2023/10/17 00:19:50;;;;;;;;;7.50;6.75;;;;;-143.90;100.00;76394.25;4967254;28;103976;-73
2023/10/17 00:22:23;;;;;;;;;7.25;5.50;;;;;-143.90;100.00;76396.31;4969583;28;101945;-75
2023/10/17 00:25:09;;;;;;;;;6.75;6.00;;;;;-143.90;100.00;76400.44;4969631;28;101564;-74
2023/10/17 00:27:37;;;;;;;;;8.25;6.75;;;;;-143.90;100.00;76408.72;4953552;28;102903;-75
2023/10/17 00:30:04;;;;;;;;;6.00;5.00;;;;;-143.90;100.00;76425.25;4977252;28;105217;-76
2023/10/17 00:32:33;;;;;;;;;4.00;1.50;;;;;-143.90;100.00;76429.41;4968691;28;101742;-75
2023/10/17 00:35:08;;;;;;;;;11.75;8.25;;;;;-143.90;100.00;76445.94;4943232;28;101853;-75
2023/10/17 00:37:37;;;;;;;;;11.75;8.00;;;;;-143.90;100.00;76437.66;4971978;28;101966;-74
2023/10/17 00:40:26;;;;;;;;;13.50;11.00;;;;;-143.90;100.00;76437.66;4967124;28;103488;-75
2023/10/17 00:42:51;;;;;;;;;10.75;10.00;;;;;-143.90;100.00;76437.66;4967975;28;102536;-74
2023/10/17 00:45:19;;;;;;;;;17.25;14.75;;;;;-143.90;100.00;76450.06;4953728;28;102070;-72
2023/10/17 00:47:46;;;;;;;;;16.00;14.25;;;;;-143.90;100.00;76450.06;4970086;28;102819;-74
2023/10/17 00:50:13;;;;;;;;;19.00;16.75;;;;;-143.90;100.00;76445.94;4968262;28;109814;-74
2023/10/17 00:52:40;;;;;;;;;16.00;13.50;;;;;-143.90;100.00;76443.88;4970792;28;101846;-74
2023/10/17 00:55:11;;;;;;;;;17.75;16.00;;;;;-143.90;100.00;76441.81;4962353;28;101836;-75
2023/10/17 00:57:37;;;;;;;;;13.00;12.50;;;;;-143.90;100.00;76445.94;4971906;28;101947;-75
2023/10/17 01:00:23;;;;;;;;;15.25;12.75;;;;;-143.90;100.00;76450.06;4968780;28;102900;-74
2023/10/17 01:02:51;;;;;;;;;13.50;11.00;;;;;-143.90;100.00;76450.06;4964546;28;101672;-75
2023/10/17 01:05:20;;;;;;;;;7.75;7.00;;;;;-143.90;100.00;76452.16;4969499;28;102034;-73
2023/10/17 01:07:47;;;;;;;;;6.00;5.25;;;;;-143.90;100.00;76445.94;4973068;28;101756;-74
2023/10/17 01:10:14;;;;;;;;;7.25;6.00;;;;;-143.90;100.00;76450.06;4946168;28;108039;-74
2023/10/17 01:15:32;;;;;;;;;3.00;2.00;;;;;-143.90;100.00;76470.75;4975963;28;101735;-75
2023/10/17 01:18:04;;;;;;;;;9.00;7.25;;;;;-143.90;100.00;76464.56;4975986;28;101674;-75
2023/10/17 01:20:32;;;;;;;;;2.50;2.00;;;;;-143.90;100.00;76474.91;4966043;28;103632;-76
2023/10/17 01:23:00;;;;;;;;;4.50;3.00;;;;;-143.90;100.00;76483.16;4952692;28;102165;-74
2023/10/17 01:25:29;;;;;;;;;8.75;6.00;;;;;-143.90;100.00;76487.31;4977158;28;101720;-75
2023/10/17 01:27:57;;;;;;;;;3.00;2.00;;;;;-143.90;100.00;76503.84;4974315;28;101717;-75
2023/10/17 01:30:29;;;;;;;;;5.00;5.00;;;;;-143.90;100.00;76512.13;4978675;28;103398;-74
2023/10/17 01:32:57;;;;;;;;;5.75;3.00;;;;;-143.90;100.00;76524.53;4975016;28;101747;-75
2023/10/17 01:35:24;;;;;;;;;9.75;5.25;;;;;-143.90;100.00;76534.88;4942881;28;101543;-74
2023/10/17 01:37:52;;;;;;;;;10.50;7.00;;;;;-143.90;100.00;76551.41;4969811;28;101674;-73
2023/10/17 01:40:22;;;;;;;;;18.25;15.00;;;;;-143.90;100.00;76570.03;4973919;28;104628;-75
2023/10/17 01:42:51;;;;;;;;;19.50;16.25;;;;;-143.90;100.00;76582.44;4970208;28;103559;-73
2023/10/17 01:45:21;;;;;;;;;12.50;12.25;;;;;-143.90;100.00;76586.56;4959856;28;101901;-76
2023/10/17 01:47:48;;;;;;;;;13.00;11.00;;;;;-143.90;100.00;76580.38;4973041;28;101611;-74
2023/10/17 01:50:14;;;;;;;;;10.00;9.00;;;;;-143.90;100.00;76576.22;4962839;28;109103;-75
2023/10/17 01:52:42;;;;;;;;;5.50;5.25;;;;;-143.90;100.00;76580.38;4974358;28;101817;-74
2023/10/17 01:55:13;;;;;;;;;7.50;7.00;;;;;-143.90;100.00;76586.56;4966118;28;102052;-75
2023/10/17 01:57:46;;;;;;;;;6.00;3.50;;;;;-143.90;100.00;76598.97;4970336;28;104906;-74
2023/10/17 02:02:59;;;;;;;;;3.50;3.50;;;;;-143.90;100.00;76611.38;4973402;28;101902;-75
2023/10/17 02:05:26;;;;;;;;;1.50;1.50;;;;;-143.90;100.00;76623.78;4974071;28;101575;-76
2023/10/17 02:07:55;;;;;;;;;4.00;2.75;;;;;-143.90;100.00;76632.06;4966618;28;102885;-74
2023/10/17 02:10:25;;;;;;;;;2.00;2.00;;;;;-143.90;100.00;76634.13;4975095;28;103503;-75
2023/10/17 02:12:52;;;;;;;;;5.75;5.00;;;;;-143.90;100.00;76636.22;4956741;28;101855;-74
2023/10/17 02:15:24;;;;;;;;;5.00;3.50;;;;;-143.90;100.00;76636.22;4948804;28;101958;-74
2023/10/17 02:17:53;;;;;;;;;6.50;3.50;;;;;-143.90;100.00;76636.22;4883609;28;101843;-75
2023/10/17 02:20:34;;;;;;;;;5.50;5.00;;;;;-143.90;100.00;76644.47;4970654;28;103662;-73
2023/10/17 02:23:02;;;;;;;;;5.25;5.00;;;;;-143.90;100.00;76640.34;4958146;28;102079;-75
2023/10/17 02:25:35;;;;;;;;;16.25;10.00;;;;;-143.90;100.00;76650.69;4981193;28;101920;-75
2023/10/17 02:28:02;;;;;;;;;19.75;17.50;;;;;-143.90;100.00;76656.88;4976664;28;102582;-75
2023/10/17 02:30:29;;;;;;;;;20.50;17.75;;;;;-143.90;100.00;76654.81;4970720;28;103818;-75
2023/10/17 02:32:56;;;;;;;;;15.50;13.00;;;;;-143.90;100.00;76648.63;4974100;28;101561;-75
2023/10/17 02:35:28;;;;;;;;;13.25;10.25;;;;;-143.90;100.00;76642.41;4972861;28;101828;-75
2023/10/17 02:37:59;;;;;;;;;6.00;5.00;;;;;-143.90;100.00;76646.53;4975152;28;102738;-74
2023/10/17 02:40:27;;;;;;;;;9.50;8.50;;;;;-143.90;100.00;76648.63;4972285;28;103614;-75
2023/10/17 02:42:55;;;;;;;;;2.50;1.00;;;;;-143.90;100.00;76640.34;4955670;28;101990;-74
2023/10/17 02:45:24;;;;;;;;;7.50;5.50;;;;;-143.90;100.00;76648.63;4970051;28;101806;-74
2023/10/17 02:47:56;;;;;;;;;7.50;6.00;;;;;-143.90;100.00;76656.88;4984166;28;101870;-75
2023/10/17 02:50:46;;;;;;;;;6.00;5.25;;;;;-143.90;100.00;76654.81;4972470;28;102177;-74
2023/10/17 02:53:14;;;;;;;;;5.25;4.00;;;;;-143.90;100.00;76652.75;4971664;28;102067;-74
2023/10/17 02:55:40;;;;;;;;;5.75;5.00;;;;;-143.90;100.00;76650.69;4972179;28;101936;-76
2023/10/17 02:58:07;;;;;;;;;6.25;6.00;;;;;-143.90;100.00;76648.63;4974311;28;101728;-75
2023/10/17 03:00:34;;;;;;;;;6.25;5.50;;;;;-143.90;100.00;76648.63;4973721;28;103393;-73
2023/10/17 03:03:12;;;;;;;;;7.00;4.00;;;;;-143.90;100.00;76646.53;4954944;28;102107;-74
2023/10/17 03:05:41;;;;;;;;;8.25;6.00;;;;;-143.90;100.00;76642.41;4970552;28;102406;-74
2023/10/17 03:08:15;;;;;;;;;11.25;10.75;;;;;-143.90;100.00;76627.94;4968893;28;101787;-75
2023/10/17 03:10:43;;;;;;;;;9.75;9.50;;;;;-143.90;100.00;76630.00;4969138;28;103562;-75
2023/10/17 03:13:23;;;;;;;;;15.00;9.00;;;;;-143.90;100.00;76632.06;4972029;28;102088;-75
2023/10/17 03:15:55;;;;;;;;;6.50;5.50;;;;;-143.90;100.00;76627.94;4971081;28;102541;-74
2023/10/17 03:18:22;;;;;;;;;8.00;7.75;;;;;-143.90;100.00;76630.00;4975059;28;101868;-74
2023/10/17 03:20:52;;;;;;;;;14.00;11.00;;;;;-143.90;100.00;76609.31;4975296;28;103654;-75
2023/10/17 03:23:32;;;;;;;;;10.25;8.00;;;;;-143.90;100.00;76603.13;4974890;28;102465;-74
2023/10/17 03:26:01;;;;;;;;;17.75;13.00;;;;;-143.90;100.00;76601.03;4972616;28;101864;-74
2023/10/17 03:28:29;;;;;;;;;15.00;13.50;;;;;-143.90;100.00;76596.91;4977515;28;101551;-75
2023/10/17 03:30:55;;;;;;;;;16.25;12.75;;;;;-143.90;100.00;76594.84;4976830;28;103354;-75
2023/10/17 03:33:32;;;;;;;;;14.00;12.25;;;;;-143.90;100.00;76590.72;4978060;28;102106;-74
2023/10/17 03:38:31;;;;;;;;;12.50;12.00;;;;;-143.90;100.00;76580.38;4976859;28;101634;-75
2023/10/17 03:41:15;;;;;;;;;10.25;10.00;;;;;-143.90;100.00;76570.03;4973039;28;103433;-75
2023/10/17 03:43:52;;;;;;;;;10.50;9.50;;;;;-143.90;100.00;76557.63;4968615;28;103000;-74
2023/10/17 03:46:25;;;;;;;;;8.00;6.00;;;;;-143.90;100.00;76553.47;4951927;28;102135;-76
2023/10/17 03:48:57;;;;;;;;;8.00;7.50;;;;;-143.90;100.00;76553.47;4962436;28;102572;-76
2023/10/17 03:51:27;;;;;;;;;10.00;8.75;;;;;-143.90;100.00;76549.34;4967080;28;108485;-75
2023/10/17 03:54:03;;;;;;;;;11.25;11.25;;;;;-143.90;100.00;76561.75;4974930;28;101924;-75
2023/10/17 03:56:35;;;;;;;;;16.50;15.25;;;;;-143.90;100.00;76557.63;4963133;28;103376;-75
2023/10/17 04:01:48;;;;;;;;;41.33;33.67;;;;;-143.90;100.00;76592.78;4968253;28;103561;-74
2023/10/17 04:04:22;;;;;;;;;33.75;28.50;;;;;-143.90;100.00;76594.84;4973034;28;102037;-75
2023/10/17 04:06:56;;;;;;;;;31.00;28.67;;;;;-143.90;100.00;76605.19;4973148;28;101947;-75
2023/10/17 04:09:27;;;;;;;;;42.67;36.00;;;;;-143.90;100.00;76615.53;4969948;28;102521;-75
2023/10/17 04:12:03;;;;;;;;;34.00;25.50;;;;;-143.90;100.00;76611.38;4977285;28;107888;-75
2023/10/17 04:14:33;;;;;;;;;31.00;25.75;;;;;-143.90;100.00;76609.31;4966803;28;102548;-75
2023/10/17 04:17:03;;;;;;;;;21.25;19.00;;;;;-143.90;100.00;76594.84;4971089;28;101752;-76
2023/10/17 04:19:32;;;;;;;;;18.25;15.25;;;;;-143.90;100.00;76598.97;4949523;28;101989;-75
2023/10/17 04:24:46;;;;;;;;;13.00;13.00;;;;;-143.90;100.00;76609.31;4971615;28;103263;-74
2023/10/17 04:29:44;;;;;;;;;13.00;11.50;;;;;-143.90;100.00;76623.78;4943650;28;101974;-76
2023/10/17 04:32:13;;;;;;;;;10.00;7.00;;;;;-143.90;100.00;76627.94;4949606;28;103576;-75
2023/10/17 04:34:46;;;;;;;;;10.00;8.75;;;;;-143.90;100.00;76632.06;4967754;28;101867;-75
2023/10/17 04:37:18;;;;;;;;;9.00;7.00;;;;;-143.90;100.00;76636.22;4961702;28;101702;-75
2023/10/17 04:39:48;;;;;;;;;10.50;10.50;;;;;-143.90;100.00;76656.88;4971335;28;101848;-77
2023/10/17 04:42:25;;;;;;;;;13.25;11.75;;;;;-143.90;100.00;76669.28;4966247;28;103398;-77
2023/10/17 04:44:52;;;;;;;;;16.25;13.75;;;;;-143.90;100.00;76677.56;4966443;28;101938;-73
2023/10/17 04:49:55;;;;;;;;;27.67;26.00;;;;;-143.90;100.00;76692.03;4969334;28;101790;-75
2023/10/17 04:52:29;;;;;;;;;17.67;13.33;;;;;-143.90;100.00;76698.25;4967910;28;104986;-75
2023/10/17 04:55:08;;;;;;;;;23.50;21.00;;;;;-143.90;100.00;76706.53;4976475;28;102034;-75
2023/10/17 04:57:58;;;;;;;;;21.00;19.00;;;;;-143.90;100.00;76714.78;4950668;28;101700;-74
2023/10/17 05:00:52;;;;;;;;;22.00;18.75;;;;;-143.90;100.00;76729.28;4961446;28;101963;-75
2023/10/17 05:03:32;;;;;;;;;38.33;36.00;;;;;-143.90;100.00;76752.03;4970870;28;107688;-75
2023/10/17 05:07:07;;;;;;;;;56.67;46.00;;;;;-143.90;100.00;76776.84;4970878;28;101863;-74
2023/10/17 06:18:59;;;;;;;;;48.67;40.33;;;;;-143.90;100.00;76716.88;4980613;28;102442;-75
2023/10/17 06:21:35;;;;;;;;;45.33;39.00;;;;;-143.90;100.00;76694.13;4979563;28;103622;-75
2023/10/17 06:24:06;;;;;;;;;38.00;32.33;;;;;-143.90;100.00;76669.28;4973821;28;101834;-74
2023/10/17 06:32:48;;;;;;;;;57.00;41.67;;;;;-143.90;100.00;76630.00;4977828;28;103332;-75
2023/10/17 06:35:20;;;;;;;;;53.67;41.67;;;;;-143.90;100.00;76607.25;4968393;28;102832;-75
2023/10/17 06:37:51;;;;;;;;;49.33;41.00;;;;;-143.90;100.00;76594.84;4968340;28;101741;-74
2023/10/17 06:40:18;;;;;;;;;43.00;37.67;;;;;-143.90;100.00;76582.44;4973425;28;103302;-76
2023/10/17 06:42:58;;;;;;;;;45.00;38.33;;;;;-143.90;100.00;76565.88;4975532;28;103516;-75
2023/10/17 06:45:26;;;;;;;;;37.00;34.33;;;;;-143.90;100.00;76563.81;4975877;28;101532;-75
2023/10/17 06:48:02;;;;;;;;;62.00;48.00;;;;;-143.90;100.00;76555.53;4981098;28;101678;-76
2023/10/17 06:53:18;;;;;;;;;50.33;41.33;;;;;-143.90;100.00;76507.97;4979534;28;103530;-76
2023/10/17 06:55:47;;;;;;;;;40.00;36.33;;;;;-143.90;100.00;76481.09;4978029;28;101817;-76
2023/10/17 06:58:15;;;;;;;;;32.00;27.75;;;;;-143.90;100.00;76487.31;4953804;28;101589;-76
2023/10/17 07:00:53;;;;;;;;;39.00;35.00;;;;;-143.90;100.00;76464.56;4978768;28;102249;-76
2023/10/17 07:03:25;;;;;;;;;48.00;40.33;;;;;-143.90;100.00;76454.22;4971863;28;103385;-76
2023/10/17 07:05:55;;;;;;;;;54.00;42.33;;;;;-143.90;100.00;76423.19;4974869;28;102069;-76
2023/10/17 07:08:22;;;;;;;;;47.00;37.33;;;;;-143.90;100.00;76414.91;4954865;28;102629;-75
2023/10/17 07:11:02;;;;;;;;;37.50;32.50;;;;;-143.90;100.00;76390.09;4979426;28;102211;-76
2023/10/17 07:13:49;;;;;;;;;36.00;30.00;;;;;-143.90;100.00;76381.84;4971320;28;107863;-74
2023/10/17 07:16:27;;;;;;;;;41.25;35.50;;;;;-143.90;100.00;76363.22;4975309;28;101640;-76
2023/10/17 07:18:55;;;;;;;;;36.50;30.25;;;;;-143.90;100.00;76334.25;4967705;28;102049;-76
2023/10/17 07:21:24;;;;;;;;;31.25;27.25;;;;;-143.90;100.00;76301.19;4979847;28;101661;-76
2023/10/17 07:23:56;;;;;;;;;27.00;20.75;;;;;-143.90;99.47;76288.78;4969837;28;103736;-76
2023/10/17 07:28:52;;;;;;;;;21.75;18.50;;;;;-143.90;99.35;76241.22;4974526;28;101832;-76
2023/10/17 07:31:22;;;;;;;;;22.50;17.25;;;;;-143.90;98.95;76222.59;4951792;28;103074;-76
2023/10/17 07:34:36;;;;;;;;;19.50;17.75;;;;;-143.90;99.34;76201.91;4975718;28;103618;-74
2023/10/17 07:36:37;;;;;;;;;18.25;17.00;;;;;-143.90;98.31;76191.56;4955325;28;101513;-74
2023/10/17 07:39:06;;;;;;;;;20.50;19.75;;;;;-143.90;97.93;76175.03;4978937;28;101625;-76
2023/10/17 07:41:36;;;;;;;;;20.00;17.25;;;;;-143.90;97.70;76152.28;4971050;28;101558;-76
2023/10/17 07:44:26;;;;;;;;;28.00;26.00;;;;;-143.90;94.91;76152.28;4976691;28;103569;-77
2023/10/17 07:49:48;;;;;;;;;29.00;23.00;;;;;-143.90;95.50;76133.69;4948445;28;101762;-76
2023/10/17 07:52:22;;;;;;;;;37.75;29.75;;;;;-143.90;93.53;76119.19;4970994;28;101786;-76
2023/10/17 07:54:58;;;;;;;;;36.75;33.00;;;;;-143.90;94.67;76096.44;4980164;28;103408;-77
2023/10/17 07:57:26;;;;;;;;;24.75;20.50;;;;;-143.90;95.10;76073.72;4968758;28;102237;-75
2023/10/17 07:59:56;;;;;;;;;20.50;17.75;;;;;-143.90;93.79;76061.31;4977591;28;101416;-77
2023/10/17 08:02:30;;;;;;;;;22.25;18.75;;;;;-143.90;92.64;76050.97;4975984;28;101893;-76
2023/10/17 08:05:16;;;;;;;;;20.75;19.50;;;;;-143.90;92.91;76044.75;4976741;28;107875;-77
2023/10/17 08:07:48;;;;;;;;;28.50;25.75;;;;;-143.90;93.11;76044.75;4970091;28;101959;-77
2023/10/17 08:10:29;;;;;;;;;28.25;26.00;;;;;-143.90;92.68;76040.63;4978063;28;101834;-76
2023/10/17 08:12:57;;;;;;;;;40.25;32.00;;;;;-143.90;90.62;76057.16;4975844;28;101734;-76
2023/10/17 08:15:30;;;;;;;;;24.75;21.75;;;;;-143.90;92.15;76040.63;4976655;28;108175;-77
2023/10/17 08:17:58;;;;;;;;;31.25;27.25;;;;;-143.90;91.60;76032.34;4974331;28;101813;-76
2023/10/17 08:23:11;;;;;;;;;29.50;26.00;;;;;-143.90;91.14;76024.06;4979115;28;101947;-77
2023/10/17 08:25:53;;;;;;;;;42.50;35.25;;;;;-143.90;89.16;76024.06;4952311;28;103641;-77
2023/10/17 08:28:33;;;;;;;;;44.25;36.00;;;;;-143.90;89.73;76007.53;4978688;28;101827;-77
2023/10/17 08:31:35;;;;;;;;;39.00;29.25;;;;;-143.90;89.75;75978.59;4969574;28;101564;-76
2023/10/17 08:41:57;;;;;;;;;25.75;20.00;;;;;-143.90;82.27;75918.63;4973175;28;101781;-77
2023/10/17 08:44:29;;;;;;;;;22.50;16.50;;;;;-143.90;78.10;75916.56;4978898;28;101899;-78
2023/10/17 08:46:56;;;;;;;;;16.00;14.50;;;;;-143.90;77.47;75908.28;4974708;28;108000;-76
2023/10/17 08:49:27;;;;;;;;;14.50;13.50;;;;;-143.90;79.23;75891.75;4975204;28;101883;-76
2023/10/17 08:51:56;;;;;;;;;14.50;13.00;;;;;-143.90;77.13;75883.47;4971750;28;101848;-77
2023/10/17 08:54:25;;;;;;;;;10.50;9.50;;;;;-143.90;74.71;75887.59;4977989;28;101618;-77
2023/10/17 08:56:52;;;;;;;;;8.00;7.75;;;;;-143.90;70.84;75875.19;4978118;28;103360;-78
2023/10/17 09:02:28;;;;;;;;;15.25;14.00;;;;;-143.90;74.15;75895.88;4972714;28;102009;-75
2023/10/17 09:05:25;;;;;;;;;14.00;12.75;;;;;-143.90;74.92;75900.00;4972268;28;101635;-76
2023/10/17 09:07:56;;;;;;;;;12.00;9.00;;;;;-143.90;76.48;75914.47;4971502;28;107635;-77
2023/10/17 09:10:37;;;;;;;;;10.00;8.50;;;;;-143.90;74.44;75920.69;4971411;28;101678;-76
2023/10/17 09:15:56;;;;;;;;;7.25;6.00;;;;;-143.90;69.89;75937.22;4969102;28;101642;-76
2023/10/17 09:18:29;;;;;;;;;2.00;0.75;;;;;-143.90;68.05;75943.44;4981041;28;103686;-77
2023/10/17 09:20:57;;;;;;;;;3.50;2.00;;;;;-143.90;71.65;75935.16;4974573;28;101765;-76
2023/10/17 09:23:28;;;;;;;;;2.00;2.00;;;;;-143.90;70.85;75941.38;4975705;28;102498;-76
2023/10/17 09:25:57;;;;;;;;;3.00;1.75;;;;;-143.90;70.73;75947.56;4977034;28;102869;-77
2023/10/17 09:28:28;;;;;;;;;2.00;1.00;;;;;-143.90;73.26;75949.63;4963445;28;110741;-76
2023/10/17 09:31:02;;;;;;;;;1.50;1.50;;;;;-143.90;73.52;75951.69;4975907;28;101564;-78
2023/10/17 09:33:31;;;;;;;;;1.00;0.50;;;;;-143.90;71.54;75957.91;4951278;28;101968;-76
2023/10/17 09:36:00;;;;;;;;;3.00;2.00;;;;;-143.90;72.69;75970.31;4976812;28;102484;-77
2023/10/17 09:38:27;;;;;;;;;3.75;3.75;;;;;-143.90;72.41;75991.00;4976160;28;108166;-76
2023/10/17 09:41:05;;;;;;;;;8.00;7.25;;;;;-143.90;74.84;76015.81;4974896;28;101575;-75
2023/10/17 09:43:49;;;;;;;;;7.00;6.00;;;;;-143.90;76.28;76030.28;4966929;28;104833;-75
2023/10/17 09:46:18;;;;;;;;;7.00;5.00;;;;;-143.90;77.14;76009.59;4969646;28;101850;-76
2023/10/17 09:48:48;;;;;;;;;6.50;5.00;;;;;-143.90;79.69;75993.06;4971941;28;103398;-76
2023/10/17 09:51:20;;;;;;;;;5.00;3.75;;;;;-143.90;75.52;75982.72;4946003;28;101790;-77
2023/10/17 09:53:58;;;;;;;;;4.00;4.00;;;;;-143.90;76.21;75968.25;4974722;28;102045;-76
2023/10/17 09:56:36;;;;;;;;;8.00;7.00;;;;;-143.90;71.54;75974.44;4973606;28;101739;-77
2023/10/17 09:59:07;;;;;;;;;4.75;4.75;;;;;-143.90;73.32;75957.91;4969335;28;108153;-76
2023/10/17 10:01:35;;;;;;;;;5.00;5.00;;;;;-143.90;71.78;75943.44;4970166;28;101761;-77
2023/10/17 10:04:03;;;;;;;;;7.50;7.50;;;;;-143.90;72.64;75924.81;4977085;28;101813;-76
2023/10/17 10:06:32;;;;;;;;;6.50;5.00;;;;;-143.90;72.85;75900.00;4966312;28;102917;-76
2023/10/17 10:09:06;;;;;;;;;9.25;5.00;;;;;-143.90;68.50;75902.06;4976833;28;103404;-75
2023/10/17 10:11:48;;;;;;;;;4.50;3.50;;;;;-143.90;69.60;75887.59;4973043;28;102020;-77
2023/10/17 10:14:16;;;;;;;;;5.00;4.00;;;;;-143.90;68.39;75871.06;4973978;28;101910;-76
2023/10/17 10:16:51;;;;;;;;;4.00;4.00;;;;;-143.90;72.55;75864.84;4968541;28;103118;-76
2023/10/17 10:19:22;;;;;;;;;8.25;4.75;;;;;-143.90;69.56;75873.13;4967104;28;103564;-76
2023/10/17 10:21:59;;;;;;;;;10.00;8.00;;;;;-143.90;73.44;75862.78;4973318;28;103213;-76
2023/10/17 10:24:31;;;;;;;;;5.25;5.00;;;;;-143.90;75.30;75850.38;4955695;28;101641;-77
2023/10/17 10:27:08;;;;;;;;;3.00;3.00;;;;;-143.90;73.73;75829.72;4969725;28;102017;-77
2023/10/17 10:29:35;;;;;;;;;2.75;2.75;;;;;-143.90;72.31;75817.31;4969692;28;103417;-77
2023/10/17 10:32:05;;;;;;;;;5.00;5.00;;;;;-143.90;66.81;75813.16;4976597;28;101849;-77
2023/10/17 10:34:36;;;;;;;;;6.50;4.50;;;;;-143.90;65.48;75813.16;4970486;28;102048;-76
2023/10/17 10:37:03;;;;;;;;;7.50;6.25;;;;;-143.90;70.05;75800.75;4962355;28;102355;-76
2023/10/17 10:39:30;;;;;;;;;4.00;3.00;;;;;-143.90;71.81;75784.22;4974593;28;104172;-74
2023/10/17 10:41:58;;;;;;;;;5.00;4.25;;;;;-143.90;70.32;75765.59;4983741;28;101698;-77
2023/10/17 10:44:28;;;;;;;;;3.75;3.50;;;;;-143.90;70.71;75740.78;4976123;28;101778;-76
2023/10/17 10:46:55;;;;;;;;;4.00;3.00;;;;;-143.90;69.00;75730.47;4981833;28;101911;-77
2023/10/17 10:49:30;;;;;;;;;8.00;5.00;;;;;-143.90;66.36;75730.47;4976350;28;103950;-77
2023/10/17 10:51:58;;;;;;;;;6.00;6.00;;;;;-143.90;65.99;75724.25;4978259;28;101756;-77
2023/10/17 10:54:45;;;;;;;;;5.25;3.25;;;;;-143.90;67.75;75711.84;4980779;28;101764;-77
2023/10/17 10:57:12;;;;;;;;;6.50;5.25;;;;;-143.90;66.92;75711.84;4972635;28;102006;-76
2023/10/17 10:59:49;;;;;;;;;9.25;7.75;;;;;-143.90;64.23;75709.78;4977222;28;103540;-77
2023/10/17 11:02:16;;;;;;;;;9.75;8.00;;;;;-143.90;64.67;75722.19;4976563;28;101928;-78
2023/10/17 11:04:42;;;;;;;;;8.50;8.00;;;;;-143.90;61.94;75718.06;4980822;28;101762;-78
2023/10/17 11:07:22;;;;;;;;;8.00;6.00;;;;;-143.90;64.31;75715.97;4974599;28;103083;-77
2023/10/17 11:10:10;;;;;;;;;6.75;6.75;;;;;-143.90;66.93;75707.72;4976912;28;103620;-76
2023/10/17 11:12:38;;;;;;;;;10.50;9.25;;;;;-143.90;62.80;75709.78;4974202;28;101470;-76
2023/10/17 11:15:16;;;;;;;;;4.75;4.00;;;;;-143.90;62.84;75693.25;4980347;28;101765;-76
2023/10/17 11:17:43;;;;;;;;;7.00;7.00;;;;;-143.90;58.28;75728.38;4956203;28;102107;-76
2023/10/17 11:20:15;;;;;;;;;6.75;6.00;;;;;-143.90;60.17;75726.31;4971942;28;103354;-77
2023/10/17 11:22:42;;;;;;;;;9.75;8.25;;;;;-143.90;57.74;75759.41;4975241;28;101859;-79
2023/10/17 11:25:13;;;;;;;;;7.00;7.00;;;;;-143.90;62.54;75751.13;4978966;28;101914;-78
2023/10/17 11:27:53;;;;;;;;;11.00;8.75;;;;;-143.90;60.51;75757.34;4967064;28;102651;-76
2023/10/17 11:30:21;;;;;;;;;7.25;7.00;;;;;-143.90;62.33;75730.47;4973849;28;103389;-77
2023/10/17 11:32:49;;;;;;;;;6.50;5.50;;;;;-143.90;61.05;75722.19;4973971;28;101753;-75
2023/10/17 11:35:19;;;;;;;;;6.50;6.50;;;;;-143.90;56.85;75726.31;4969790;28;102974;-77
2023/10/17 11:37:47;;;;;;;;;8.00;7.00;;;;;-143.90;61.50;75722.19;4976601;28;101958;-76
2023/10/17 11:40:38;;;;;;;;;4.25;4.00;;;;;-143.90;61.57;75713.91;4972330;28;108065;-75
2023/10/17 11:43:16;;;;;;;;;3.00;2.75;;;;;-143.90;59.25;75693.25;4982742;28;101932;-77
2023/10/17 11:45:44;;;;;;;;;4.00;3.00;;;;;-143.90;58.97;75689.09;4968438;28;101491;-76
2023/10/17 11:48:36;;;;;;;;;3.50;3.50;;;;;-143.90;54.97;75680.84;4979601;28;101918;-77
2023/10/17 11:51:08;;;;;;;;;4.00;4.00;;;;;-143.90;59.01;75713.91;4972950;28;107816;-76
2023/10/17 11:53:34;;;;;;;;;5.75;5.00;;;;;-143.90;60.85;75705.66;4977216;28;101694;-77
2023/10/17 11:56:01;;;;;;;;;7.50;7.00;;;;;-143.90;61.56;75713.91;4977000;28;102139;-75
2023/10/17 11:58:32;;;;;;;;;5.00;5.00;;;;;-143.90;62.34;75701.50;4962441;28;101675;-76
2023/10/17 12:00:59;;;;;;;;;8.25;8.25;;;;;-143.90;61.09;75715.97;4976771;28;107935;-76
2023/10/17 12:03:27;;;;;;;;;7.75;7.00;;;;;-143.90;62.76;75711.84;4973004;28;101803;-77
2023/10/17 12:05:54;;;;;;;;;17.00;11.00;;;;;-143.90;61.96;75707.72;4981048;28;101620;-78
2023/10/17 12:08:29;;;;;;;;;9.50;7.25;;;;;-143.90;62.78;75709.78;4973230;28;101968;-76
2023/10/17 12:10:56;;;;;;;;;1.25;1.00;;;;;-143.90;59.15;75701.50;4982164;28;109816;-76
2023/10/17 12:13:23;;;;;;;;;7.00;5.00;;;;;-143.90;59.53;75680.84;4972289;28;101767;-76
2023/10/17 12:15:49;;;;;;;;;5.50;5.00;;;;;-143.90;60.17;75672.56;4963274;28;101762;-77
2023/10/17 12:18:16;;;;;;;;;6.00;5.00;;;;;-143.90;58.23;75680.84;4976912;28;102562;-77
2023/10/17 12:20:43;;;;;;;;;8.00;5.00;;;;;-143.90;62.58;75662.22;4970140;28;103580;-76
2023/10/17 12:23:10;;;;;;;;;4.50;4.50;;;;;-143.90;58.34;75645.69;4976322;28;101803;-77
2023/10/17 12:25:37;;;;;;;;;6.00;5.00;;;;;-143.90;58.77;75620.88;4975846;28;102570;-76
2023/10/17 12:28:06;;;;;;;;;3.75;2.75;;;;;-143.90;54.14;75608.47;4981441;28;101617;-76
2023/10/17 12:30:37;;;;;;;;;5.75;3.25;;;;;-143.90;55.12;75598.13;4972904;28;103466;-75
2023/10/17 12:33:08;;;;;;;;;5.50;4.50;;;;;-143.90;55.53;75591.94;4954405;28;102620;-77
2023/10/17 12:35:37;;;;;;;;;1.00;1.00;;;;;-143.90;52.62;75577.44;4968523;28;101802;-76
2023/10/17 12:38:14;;;;;;;;;2.00;2.00;;;;;-143.90;52.29;75583.66;4980775;28;102158;-78
2023/10/17 12:40:42;;;;;;;;;2.75;2.75;;;;;-143.90;54.28;75569.19;4971554;28;103427;-77
2023/10/17 12:43:11;;;;;;;;;3.00;2.25;;;;;-143.90;55.09;75560.91;4976034;28;101868;-78
2023/10/17 12:45:38;;;;;;;;;3.00;3.00;;;;;-143.90;52.41;75560.91;4971792;28;101870;-77
2023/10/17 12:48:10;;;;;;;;;4.00;3.00;;;;;-143.90;52.34;75536.09;4974319;28;101966;-77
2023/10/17 12:50:43;;;;;;;;;4.00;3.00;;;;;-143.90;51.53;75531.97;4977663;28;103417;-79
2023/10/17 12:53:11;;;;;;;;;3.00;3.00;;;;;-143.90;51.08;75552.63;4968283;28;101736;-77
2023/10/17 12:55:39;;;;;;;;;4.00;4.00;;;;;-143.90;56.02;75565.03;4973679;28;101907;-78
2023/10/17 12:58:10;;;;;;;;;5.00;4.00;;;;;-143.90;56.82;75573.31;4970807;28;101956;-77
2023/10/17 13:00:41;;;;;;;;;8.00;4.25;;;;;-143.90;54.59;75565.03;4979143;28;103416;-76
2023/10/17 13:03:08;;;;;;;;;2.00;2.00;;;;;-143.90;52.12;75548.50;4972420;28;101754;-79
2023/10/17 13:05:34;;;;;;;;;1.75;1.75;;;;;-143.90;51.91;75540.22;4976673;28;101455;-76
2023/10/17 13:08:01;;;;;;;;;2.25;2.00;;;;;-143.90;51.23;75527.81;4978623;28;102125;-74
2023/10/17 13:10:28;;;;;;;;;1.00;1.00;;;;;-143.90;55.04;75525.75;4979525;28;108181;-76
2023/10/17 13:12:58;;;;;;;;;1.25;1.00;;;;;-143.90;52.39;75536.09;4976846;28;101780;-76
2023/10/17 13:15:25;;;;;;;;;2.00;2.00;;;;;-143.90;52.52;75527.81;4974126;28;102517;-76
2023/10/17 13:17:55;;;;;;;;;3.50;2.25;;;;;-143.90;52.38;75519.56;4982500;28;103102;-77
2023/10/17 13:20:28;;;;;;;;;2.25;1.00;;;;;-143.90;50.19;75515.41;4972939;28;103324;-76
2023/10/17 13:23:16;;;;;;;;;0.25;0.25;;;;;-143.90;48.78;75527.81;4959574;28;102002;-76